sensor_id;sensor_type;location;lat;lon;timestamp;P1;durP1;ratioP1;P2;durP2;ratioP2
55362;SDS011;41244;49.242;9.060;2022-08-21T00:01:53;5.38;;;3.92;;
55362;SDS011;41244;49.242;9.060;2022-08-21T00:04:19;4.82;;;4.15;;
55362;SDS011;41244;49.242;9.060;2022-08-21T00:06:45;5.32;;;4.10;;
55362;SDS011;41244;49.242;9.060;2022-08-21T00:09:11;4.78;;;4.20;;
55362;SDS011;41244;49.242;9.060;2022-08-21T00:11:37;4.28;;;3.88;;
55362;SDS011;41244;49.242;9.060;2022-08-21T00:14:05;4.50;;;3.78;;
55362;SDS011;41244;49.242;9.060;2022-08-21T00:16:33;5.30;;;4.10;;
55362;SDS011;41244;49.242;9.060;2022-08-21T00:18:59;7.05;;;4.57;;
55362;SDS011;41244;49.242;9.060;2022-08-21T00:21:25;6.03;;;4.10;;
55362;SDS011;41244;49.242;9.060;2022-08-21T00:23:51;7.45;;;3.90;;
55362;SDS011;41244;49.242;9.060;2022-08-21T00:26:17;6.63;;;4.20;;
55362;SDS011;41244;49.242;9.060;2022-08-21T00:28:43;4.80;;;4.10;;
55362;SDS011;41244;49.242;9.060;2022-08-21T00:31:11;4.35;;;3.95;;
55362;SDS011;41244;49.242;9.060;2022-08-21T00:33:37;7.43;;;4.40;;
55362;SDS011;41244;49.242;9.060;2022-08-21T00:36:03;5.13;;;3.88;;
55362;SDS011;41244;49.242;9.060;2022-08-21T00:38:29;4.82;;;4.20;;
55362;SDS011;41244;49.242;9.060;2022-08-21T00:40:59;6.72;;;4.63;;
55362;SDS011;41244;49.242;9.060;2022-08-21T00:43:29;5.87;;;4.50;;
55362;SDS011;41244;49.242;9.060;2022-08-21T00:45:57;5.70;;;5.00;;
55362;SDS011;41244;49.242;9.060;2022-08-21T00:48:25;5.22;;;4.70;;
55362;SDS011;41244;49.242;9.060;2022-08-21T00:51:05;5.78;;;4.78;;
55362;SDS011;41244;49.242;9.060;2022-08-21T00:53:47;5.40;;;4.28;;
55362;SDS011;41244;49.242;9.060;2022-08-21T00:56:23;8.57;;;5.00;;
55362;SDS011;41244;49.242;9.060;2022-08-21T00:58:50;6.38;;;5.22;;
55362;SDS011;41244;49.242;9.060;2022-08-21T01:01:17;6.53;;;4.85;;
55362;SDS011;41244;49.242;9.060;2022-08-21T01:03:43;7.40;;;4.72;;
55362;SDS011;41244;49.242;9.060;2022-08-21T01:06:09;4.95;;;4.45;;
55362;SDS011;41244;49.242;9.060;2022-08-21T01:08:35;5.60;;;5.00;;
55362;SDS011;41244;49.242;9.060;2022-08-21T01:11:01;6.80;;;5.20;;
55362;SDS011;41244;49.242;9.060;2022-08-21T01:13:29;5.10;;;4.60;;
55362;SDS011;41244;49.242;9.060;2022-08-21T01:15:58;5.60;;;5.10;;
55362;SDS011;41244;49.242;9.060;2022-08-21T01:18:26;5.95;;;5.35;;
55362;SDS011;41244;49.242;9.060;2022-08-21T01:23:35;6.25;;;5.25;;
55362;SDS011;41244;49.242;9.060;2022-08-21T01:26:03;6.38;;;5.80;;
55362;SDS011;41244;49.242;9.060;2022-08-21T01:28:30;7.57;;;5.20;;
55362;SDS011;41244;49.242;9.060;2022-08-21T01:31:02;8.68;;;5.22;;
55362;SDS011;41244;49.242;9.060;2022-08-21T01:33:32;5.90;;;5.30;;
55362;SDS011;41244;49.242;9.060;2022-08-21T01:35:58;5.88;;;5.28;;
55362;SDS011;41244;49.242;9.060;2022-08-21T01:38:24;5.93;;;5.30;;
55362;SDS011;41244;49.242;9.060;2022-08-21T01:40:50;6.28;;;4.75;;
55362;SDS011;41244;49.242;9.060;2022-08-21T01:43:16;5.82;;;5.22;;
55362;SDS011;41244;49.242;9.060;2022-08-21T01:45:41;5.88;;;5.18;;
55362;SDS011;41244;49.242;9.060;2022-08-21T01:48:07;5.78;;;5.18;;
55362;SDS011;41244;49.242;9.060;2022-08-21T01:50:33;7.38;;;5.90;;
55362;SDS011;41244;49.242;9.060;2022-08-21T01:52:59;5.72;;;5.05;;
55362;SDS011;41244;49.242;9.060;2022-08-21T01:55:25;6.15;;;5.55;;
55362;SDS011;41244;49.242;9.060;2022-08-21T01:57:51;6.25;;;5.43;;
55362;SDS011;41244;49.242;9.060;2022-08-21T02:00:18;7.70;;;4.85;;
55362;SDS011;41244;49.242;9.060;2022-08-21T02:02:47;7.45;;;5.00;;
55362;SDS011;41244;49.242;9.060;2022-08-21T02:05:14;7.25;;;4.85;;
55362;SDS011;41244;49.242;9.060;2022-08-21T02:07:41;5.45;;;4.95;;
55362;SDS011;41244;49.242;9.060;2022-08-21T02:10:11;5.93;;;5.18;;
55362;SDS011;41244;49.242;9.060;2022-08-21T02:12:40;6.95;;;5.45;;
55362;SDS011;41244;49.242;9.060;2022-08-21T02:15:06;7.20;;;5.47;;
55362;SDS011;41244;49.242;9.060;2022-08-21T02:17:43;5.78;;;4.93;;
55362;SDS011;41244;49.242;9.060;2022-08-21T02:20:15;5.53;;;4.93;;
55362;SDS011;41244;49.242;9.060;2022-08-21T02:22:52;6.03;;;4.90;;
55362;SDS011;41244;49.242;9.060;2022-08-21T02:25:20;5.53;;;4.80;;
55362;SDS011;41244;49.242;9.060;2022-08-21T02:27:47;5.95;;;5.13;;
55362;SDS011;41244;49.242;9.060;2022-08-21T02:30:24;6.63;;;5.43;;
55362;SDS011;41244;49.242;9.060;2022-08-21T02:32:52;6.15;;;4.90;;
55362;SDS011;41244;49.242;9.060;2022-08-21T02:35:19;6.15;;;4.95;;
55362;SDS011;41244;49.242;9.060;2022-08-21T02:38:20;8.13;;;5.72;;
55362;SDS011;41244;49.242;9.060;2022-08-21T02:40:42;6.28;;;5.45;;
55362;SDS011;41244;49.242;9.060;2022-08-21T02:43:10;6.20;;;5.22;;
55362;SDS011;41244;49.242;9.060;2022-08-21T02:45:40;5.57;;;4.97;;
55362;SDS011;41244;49.242;9.060;2022-08-21T02:48:13;5.82;;;5.18;;
55362;SDS011;41244;49.242;9.060;2022-08-21T02:50:44;7.20;;;5.00;;
55362;SDS011;41244;49.242;9.060;2022-08-21T02:53:13;9.80;;;5.38;;
55362;SDS011;41244;49.242;9.060;2022-08-21T02:55:41;6.07;;;5.28;;
55362;SDS011;41244;49.242;9.060;2022-08-21T02:58:10;6.10;;;4.85;;
55362;SDS011;41244;49.242;9.060;2022-08-21T03:00:36;6.13;;;5.32;;
55362;SDS011;41244;49.242;9.060;2022-08-21T03:03:02;6.35;;;5.72;;
55362;SDS011;41244;49.242;9.060;2022-08-21T03:05:29;7.28;;;5.20;;
55362;SDS011;41244;49.242;9.060;2022-08-21T03:07:56;8.95;;;5.30;;
55362;SDS011;41244;49.242;9.060;2022-08-21T03:10:25;7.28;;;5.50;;
55362;SDS011;41244;49.242;9.060;2022-08-21T03:12:54;8.05;;;4.68;;
55362;SDS011;41244;49.242;9.060;2022-08-21T03:15:20;5.78;;;5.15;;
55362;SDS011;41244;49.242;9.060;2022-08-21T03:17:49;7.97;;;5.18;;
55362;SDS011;41244;49.242;9.060;2022-08-21T03:20:17;5.63;;;5.10;;
55362;SDS011;41244;49.242;9.060;2022-08-21T03:22:49;6.63;;;5.70;;
55362;SDS011;41244;49.242;9.060;2022-08-21T03:25:16;7.15;;;5.55;;
55362;SDS011;41244;49.242;9.060;2022-08-21T03:27:43;6.70;;;5.20;;
55362;SDS011;41244;49.242;9.060;2022-08-21T03:30:09;6.57;;;5.45;;
55362;SDS011;41244;49.242;9.060;2022-08-21T03:32:36;6.25;;;5.20;;
55362;SDS011;41244;49.242;9.060;2022-08-21T03:35:03;6.05;;;5.13;;
55362;SDS011;41244;49.242;9.060;2022-08-21T03:37:30;6.43;;;5.38;;
55362;SDS011;41244;49.242;9.060;2022-08-21T03:39:55;8.40;;;5.70;;
55362;SDS011;41244;49.242;9.060;2022-08-21T03:42:24;5.60;;;5.00;;
55362;SDS011;41244;49.242;9.060;2022-08-21T03:44:50;6.00;;;5.40;;
55362;SDS011;41244;49.242;9.060;2022-08-21T03:47:16;5.78;;;5.05;;
55362;SDS011;41244;49.242;9.060;2022-08-21T03:49:42;6.75;;;5.35;;
55362;SDS011;41244;49.242;9.060;2022-08-21T03:52:08;6.78;;;5.22;;
55362;SDS011;41244;49.242;9.060;2022-08-21T03:54:37;7.13;;;5.30;;
55362;SDS011;41244;49.242;9.060;2022-08-21T03:57:04;9.05;;;5.90;;
55362;SDS011;41244;49.242;9.060;2022-08-21T03:59:30;6.22;;;4.80;;
55362;SDS011;41244;49.242;9.060;2022-08-21T04:02:00;6.88;;;4.95;;
55362;SDS011;41244;49.242;9.060;2022-08-21T04:04:30;5.88;;;5.20;;
55362;SDS011;41244;49.242;9.060;2022-08-21T04:06:56;7.75;;;5.43;;
55362;SDS011;41244;49.242;9.060;2022-08-21T04:09:22;8.18;;;5.32;;
55362;SDS011;41244;49.242;9.060;2022-08-21T04:11:49;6.43;;;5.20;;
55362;SDS011;41244;49.242;9.060;2022-08-21T04:14:15;6.53;;;5.22;;
55362;SDS011;41244;49.242;9.060;2022-08-21T04:16:45;8.30;;;5.68;;
55362;SDS011;41244;49.242;9.060;2022-08-21T04:19:11;7.13;;;5.32;;
55362;SDS011;41244;49.242;9.060;2022-08-21T04:21:41;7.10;;;5.80;;
55362;SDS011;41244;49.242;9.060;2022-08-21T04:24:08;6.25;;;5.20;;
55362;SDS011;41244;49.242;9.060;2022-08-21T04:26:34;8.80;;;5.97;;
55362;SDS011;41244;49.242;9.060;2022-08-21T04:29:04;8.90;;;5.90;;
55362;SDS011;41244;49.242;9.060;2022-08-21T04:31:31;6.07;;;5.47;;
55362;SDS011;41244;49.242;9.060;2022-08-21T04:33:58;8.90;;;6.10;;
55362;SDS011;41244;49.242;9.060;2022-08-21T04:36:24;6.57;;;5.82;;
55362;SDS011;41244;49.242;9.060;2022-08-21T04:38:50;6.78;;;5.63;;
55362;SDS011;41244;49.242;9.060;2022-08-21T04:41:16;8.00;;;6.47;;
55362;SDS011;41244;49.242;9.060;2022-08-21T04:43:43;8.68;;;6.05;;
55362;SDS011;41244;49.242;9.060;2022-08-21T04:46:08;7.50;;;5.47;;
55362;SDS011;41244;49.242;9.060;2022-08-21T04:48:34;8.07;;;6.00;;
55362;SDS011;41244;49.242;9.060;2022-08-21T04:51:07;8.32;;;6.05;;
55362;SDS011;41244;49.242;9.060;2022-08-21T04:54:12;7.30;;;5.90;;
55362;SDS011;41244;49.242;9.060;2022-08-21T04:56:44;8.55;;;5.90;;
55362;SDS011;41244;49.242;9.060;2022-08-21T04:59:24;8.20;;;5.53;;
55362;SDS011;41244;49.242;9.060;2022-08-21T05:01:55;7.30;;;5.32;;
55362;SDS011;41244;49.242;9.060;2022-08-21T05:04:22;8.23;;;5.65;;
55362;SDS011;41244;49.242;9.060;2022-08-21T05:06:52;6.00;;;5.00;;
55362;SDS011;41244;49.242;9.060;2022-08-21T05:09:20;10.18;;;5.55;;
55362;SDS011;41244;49.242;9.060;2022-08-21T05:11:47;5.95;;;5.38;;
55362;SDS011;41244;49.242;9.060;2022-08-21T05:14:14;6.82;;;4.88;;
55362;SDS011;41244;49.242;9.060;2022-08-21T05:16:43;7.00;;;5.07;;
55362;SDS011;41244;49.242;9.060;2022-08-21T05:19:10;6.00;;;5.40;;
55362;SDS011;41244;49.242;9.060;2022-08-21T05:21:37;7.90;;;5.38;;
55362;SDS011;41244;49.242;9.060;2022-08-21T05:24:08;8.95;;;5.82;;
55362;SDS011;41244;49.242;9.060;2022-08-21T05:26:35;7.45;;;5.65;;
55362;SDS011;41244;49.242;9.060;2022-08-21T05:29:01;7.75;;;5.78;;
55362;SDS011;41244;49.242;9.060;2022-08-21T05:31:28;7.43;;;5.18;;
55362;SDS011;41244;49.242;9.060;2022-08-21T05:33:53;7.13;;;5.43;;
55362;SDS011;41244;49.242;9.060;2022-08-21T05:36:19;7.47;;;6.13;;
55362;SDS011;41244;49.242;9.060;2022-08-21T05:38:45;7.25;;;6.55;;
55362;SDS011;41244;49.242;9.060;2022-08-21T05:41:11;7.75;;;5.68;;
55362;SDS011;41244;49.242;9.060;2022-08-21T05:43:37;7.25;;;6.18;;
55362;SDS011;41244;49.242;9.060;2022-08-21T05:46:03;9.20;;;6.32;;
55362;SDS011;41244;49.242;9.060;2022-08-21T05:48:30;7.70;;;6.15;;
55362;SDS011;41244;49.242;9.060;2022-08-21T05:50:57;10.27;;;6.88;;
55362;SDS011;41244;49.242;9.060;2022-08-21T05:53:23;7.15;;;6.35;;
55362;SDS011;41244;49.242;9.060;2022-08-21T05:55:50;7.68;;;6.28;;
55362;SDS011;41244;49.242;9.060;2022-08-21T05:58:18;8.00;;;7.03;;
55362;SDS011;41244;49.242;9.060;2022-08-21T06:00:46;9.07;;;5.97;;
55362;SDS011;41244;49.242;9.060;2022-08-21T06:03:14;7.80;;;6.03;;
55362;SDS011;41244;49.242;9.060;2022-08-21T06:05:49;9.20;;;7.18;;
55362;SDS011;41244;49.242;9.060;2022-08-21T06:08:15;9.73;;;5.82;;
55362;SDS011;41244;49.242;9.060;2022-08-21T06:10:43;10.02;;;5.80;;
55362;SDS011;41244;49.242;9.060;2022-08-21T06:13:10;8.38;;;6.15;;
55362;SDS011;41244;49.242;9.060;2022-08-21T06:15:36;8.05;;;5.72;;
55362;SDS011;41244;49.242;9.060;2022-08-21T06:18:03;5.88;;;5.20;;
55362;SDS011;41244;49.242;9.060;2022-08-21T06:20:29;7.53;;;5.40;;
55362;SDS011;41244;49.242;9.060;2022-08-21T06:22:55;8.93;;;5.70;;
55362;SDS011;41244;49.242;9.060;2022-08-21T06:25:21;6.57;;;5.28;;
55362;SDS011;41244;49.242;9.060;2022-08-21T06:27:47;8.13;;;5.38;;
55362;SDS011;41244;49.242;9.060;2022-08-21T06:30:13;8.57;;;5.57;;
55362;SDS011;41244;49.242;9.060;2022-08-21T06:32:39;8.02;;;5.18;;
55362;SDS011;41244;49.242;9.060;2022-08-21T06:35:05;9.45;;;6.80;;
55362;SDS011;41244;49.242;9.060;2022-08-21T06:37:32;9.90;;;4.97;;
55362;SDS011;41244;49.242;9.060;2022-08-21T06:39:58;8.85;;;5.60;;
55362;SDS011;41244;49.242;9.060;2022-08-21T06:42:24;7.32;;;4.97;;
55362;SDS011;41244;49.242;9.060;2022-08-21T06:44:52;7.88;;;5.10;;
55362;SDS011;41244;49.242;9.060;2022-08-21T06:47:17;8.45;;;5.10;;
55362;SDS011;41244;49.242;9.060;2022-08-21T06:49:43;8.68;;;4.90;;
55362;SDS011;41244;49.242;9.060;2022-08-21T06:52:10;7.63;;;4.80;;
55362;SDS011;41244;49.242;9.060;2022-08-21T06:54:38;6.38;;;4.60;;
55362;SDS011;41244;49.242;9.060;2022-08-21T06:57:04;8.95;;;4.80;;
55362;SDS011;41244;49.242;9.060;2022-08-21T06:59:31;10.45;;;5.60;;
55362;SDS011;41244;49.242;9.060;2022-08-21T07:01:57;8.95;;;5.47;;
55362;SDS011;41244;49.242;9.060;2022-08-21T07:04:24;7.63;;;5.10;;
55362;SDS011;41244;49.242;9.060;2022-08-21T07:06:50;6.65;;;4.70;;
55362;SDS011;41244;49.242;9.060;2022-08-21T07:09:16;8.18;;;5.13;;
55362;SDS011;41244;49.242;9.060;2022-08-21T07:11:42;6.90;;;4.55;;
55362;SDS011;41244;49.242;9.060;2022-08-21T07:14:10;7.65;;;5.07;;
55362;SDS011;41244;49.242;9.060;2022-08-21T07:16:36;9.27;;;6.32;;
55362;SDS011;41244;49.242;9.060;2022-08-21T07:19:01;10.68;;;5.50;;
55362;SDS011;41244;49.242;9.060;2022-08-21T07:21:27;8.07;;;6.05;;
55362;SDS011;41244;49.242;9.060;2022-08-21T07:23:53;10.10;;;5.00;;
55362;SDS011;41244;49.242;9.060;2022-08-21T07:26:21;10.85;;;7.30;;
55362;SDS011;41244;49.242;9.060;2022-08-21T07:28:48;7.63;;;5.15;;
55362;SDS011;41244;49.242;9.060;2022-08-21T07:31:15;10.63;;;5.30;;
55362;SDS011;41244;49.242;9.060;2022-08-21T07:33:47;9.77;;;5.38;;
55362;SDS011;41244;49.242;9.060;2022-08-21T07:36:13;8.70;;;5.15;;
55362;SDS011;41244;49.242;9.060;2022-08-21T07:38:40;11.75;;;5.57;;
55362;SDS011;41244;49.242;9.060;2022-08-21T07:41:07;8.90;;;5.35;;
55362;SDS011;41244;49.242;9.060;2022-08-21T07:43:49;9.65;;;5.47;;
55362;SDS011;41244;49.242;9.060;2022-08-21T07:46:15;10.45;;;5.68;;
55362;SDS011;41244;49.242;9.060;2022-08-21T07:48:42;10.07;;;5.80;;
55362;SDS011;41244;49.242;9.060;2022-08-21T07:51:10;8.82;;;5.47;;
55362;SDS011;41244;49.242;9.060;2022-08-21T07:53:37;8.13;;;5.43;;
55362;SDS011;41244;49.242;9.060;2022-08-21T07:56:04;10.65;;;5.43;;
55362;SDS011;41244;49.242;9.060;2022-08-21T07:58:33;8.05;;;5.75;;
55362;SDS011;41244;49.242;9.060;2022-08-21T08:00:59;10.30;;;5.75;;
55362;SDS011;41244;49.242;9.060;2022-08-21T08:03:25;9.35;;;5.07;;
55362;SDS011;41244;49.242;9.060;2022-08-21T08:05:51;8.32;;;5.80;;
55362;SDS011;41244;49.242;9.060;2022-08-21T08:08:17;9.50;;;5.55;;
55362;SDS011;41244;49.242;9.060;2022-08-21T08:10:42;10.07;;;6.00;;
55362;SDS011;41244;49.242;9.060;2022-08-21T08:13:09;8.55;;;6.05;;
55362;SDS011;41244;49.242;9.060;2022-08-21T08:15:36;8.45;;;6.22;;
55362;SDS011;41244;49.242;9.060;2022-08-21T08:18:02;8.70;;;6.25;;
55362;SDS011;41244;49.242;9.060;2022-08-21T08:20:31;7.88;;;6.10;;
55362;SDS011;41244;49.242;9.060;2022-08-21T08:22:57;10.57;;;6.05;;
55362;SDS011;41244;49.242;9.060;2022-08-21T08:25:24;9.07;;;6.07;;
55362;SDS011;41244;49.242;9.060;2022-08-21T08:27:51;11.57;;;6.07;;
55362;SDS011;41244;49.242;9.060;2022-08-21T08:30:17;7.10;;;5.95;;
55362;SDS011;41244;49.242;9.060;2022-08-21T08:32:45;8.10;;;7.15;;
55362;SDS011;41244;49.242;9.060;2022-08-21T08:35:11;9.27;;;6.93;;
55362;SDS011;41244;49.242;9.060;2022-08-21T08:37:38;8.60;;;6.82;;
55362;SDS011;41244;49.242;9.060;2022-08-21T08:40:18;14.15;;;6.85;;
55362;SDS011;41244;49.242;9.060;2022-08-21T08:42:50;9.38;;;6.45;;
55362;SDS011;41244;49.242;9.060;2022-08-21T08:45:18;9.77;;;6.03;;
55362;SDS011;41244;49.242;9.060;2022-08-21T08:47:52;7.40;;;6.65;;
55362;SDS011;41244;49.242;9.060;2022-08-21T08:50:33;7.78;;;5.82;;
55362;SDS011;41244;49.242;9.060;2022-08-21T08:53:22;7.23;;;5.50;;
55362;SDS011;41244;49.242;9.060;2022-08-21T08:55:55;6.68;;;5.75;;
55362;SDS011;41244;49.242;9.060;2022-08-21T08:58:31;7.63;;;5.70;;
55362;SDS011;41244;49.242;9.060;2022-08-21T09:01:00;6.57;;;5.32;;
55362;SDS011;41244;49.242;9.060;2022-08-21T09:03:27;6.55;;;5.95;;
55362;SDS011;41244;49.242;9.060;2022-08-21T09:17:16;9.13;;;5.15;;
55362;SDS011;41244;49.242;9.060;2022-08-21T09:26:13;9.35;;;5.00;;
55362;SDS011;41244;49.242;9.060;2022-08-21T09:28:41;7.65;;;5.05;;
55362;SDS011;41244;49.242;9.060;2022-08-21T09:31:16;8.73;;;5.25;;
55362;SDS011;41244;49.242;9.060;2022-08-21T09:33:56;8.80;;;5.27;;
55362;SDS011;41244;49.242;9.060;2022-08-21T09:36:50;6.70;;;4.85;;
55362;SDS011;41244;49.242;9.060;2022-08-21T09:39:30;6.82;;;4.90;;
55362;SDS011;41244;49.242;9.060;2022-08-21T09:42:06;7.32;;;4.90;;
55362;SDS011;41244;49.242;9.060;2022-08-21T09:44:35;8.68;;;4.75;;
55362;SDS011;41244;49.242;9.060;2022-08-21T09:47:06;7.28;;;5.00;;
55362;SDS011;41244;49.242;9.060;2022-08-21T09:49:35;8.55;;;4.78;;
55362;SDS011;41244;49.242;9.060;2022-08-21T09:52:03;8.15;;;4.43;;
55362;SDS011;41244;49.242;9.060;2022-08-21T09:54:38;6.50;;;4.57;;
55362;SDS011;41244;49.242;9.060;2022-08-21T09:59:53;8.18;;;5.00;;
55362;SDS011;41244;49.242;9.060;2022-08-21T10:02:27;8.90;;;5.22;;
55362;SDS011;41244;49.242;9.060;2022-08-21T10:05:03;8.75;;;5.20;;
55362;SDS011;41244;49.242;9.060;2022-08-21T10:07:44;20.65;;;12.05;;
55362;SDS011;41244;49.242;9.060;2022-08-21T10:18:27;7.35;;;4.80;;
55362;SDS011;41244;49.242;9.060;2022-08-21T10:27:16;8.35;;;4.30;;
55362;SDS011;41244;49.242;9.060;2022-08-21T10:32:42;6.75;;;4.60;;
55362;SDS011;41244;49.242;9.060;2022-08-21T10:35:37;9.23;;;4.90;;
55362;SDS011;41244;49.242;9.060;2022-08-21T10:50:07;8.20;;;4.35;;
55362;SDS011;41244;49.242;9.060;2022-08-21T10:55:52;5.97;;;3.97;;
55362;SDS011;41244;49.242;9.060;2022-08-21T10:58:40;6.18;;;4.40;;
55362;SDS011;41244;49.242;9.060;2022-08-21T11:01:25;8.45;;;4.30;;
55362;SDS011;41244;49.242;9.060;2022-08-21T11:06:50;6.57;;;4.32;;
55362;SDS011;41244;49.242;9.060;2022-08-21T11:09:25;7.47;;;4.07;;
55362;SDS011;41244;49.242;9.060;2022-08-21T11:11:54;7.18;;;4.65;;
55362;SDS011;41244;49.242;9.060;2022-08-21T11:17:05;7.90;;;4.40;;
55362;SDS011;41244;49.242;9.060;2022-08-21T11:25:49;8.73;;;4.40;;
55362;SDS011;41244;49.242;9.060;2022-08-21T11:36:26;8.13;;;4.78;;
55362;SDS011;41244;49.242;9.060;2022-08-21T11:39:22;8.05;;;4.25;;
55362;SDS011;41244;49.242;9.060;2022-08-21T11:45:01;8.02;;;4.22;;
55362;SDS011;41244;49.242;9.060;2022-08-21T11:50:30;7.63;;;4.40;;
55362;SDS011;41244;49.242;9.060;2022-08-21T11:53:14;7.03;;;4.30;;
55362;SDS011;41244;49.242;9.060;2022-08-21T11:58:16;7.60;;;4.43;;
55362;SDS011;41244;49.242;9.060;2022-08-21T12:01:18;5.28;;;3.90;;
55362;SDS011;41244;49.242;9.060;2022-08-21T12:03:52;11.57;;;5.07;;
55362;SDS011;41244;49.242;9.060;2022-08-21T12:06:38;6.97;;;4.10;;
55362;SDS011;41244;49.242;9.060;2022-08-21T12:09:10;6.72;;;4.22;;
55362;SDS011;41244;49.242;9.060;2022-08-21T12:14:37;9.05;;;4.40;;
55362;SDS011;41244;49.242;9.060;2022-08-21T12:17:19;6.55;;;3.85;;
55362;SDS011;41244;49.242;9.060;2022-08-21T12:20:02;6.47;;;4.28;;
55362;SDS011;41244;49.242;9.060;2022-08-21T12:23:02;7.47;;;4.13;;
55362;SDS011;41244;49.242;9.060;2022-08-21T12:25:46;7.85;;;4.10;;
55362;SDS011;41244;49.242;9.060;2022-08-21T12:28:46;8.93;;;5.32;;
55362;SDS011;41244;49.242;9.060;2022-08-21T12:31:25;7.00;;;4.00;;
55362;SDS011;41244;49.242;9.060;2022-08-21T12:33:57;8.75;;;3.90;;
55362;SDS011;41244;49.242;9.060;2022-08-21T12:36:30;4.63;;;4.20;;
55362;SDS011;41244;49.242;9.060;2022-08-21T12:39:13;8.60;;;4.22;;
55362;SDS011;41244;49.242;9.060;2022-08-21T12:44:45;6.45;;;4.07;;
55362;SDS011;41244;49.242;9.060;2022-08-21T12:47:27;4.55;;;3.58;;
55362;SDS011;41244;49.242;9.060;2022-08-21T12:50:05;8.20;;;3.95;;
55362;SDS011;41244;49.242;9.060;2022-08-21T12:52:40;6.53;;;4.00;;
55362;SDS011;41244;49.242;9.060;2022-08-21T12:55:26;8.05;;;6.38;;
55362;SDS011;41244;49.242;9.060;2022-08-21T12:57:57;6.00;;;3.83;;
55362;SDS011;41244;49.242;9.060;2022-08-21T13:00:24;7.00;;;3.92;;
55362;SDS011;41244;49.242;9.060;2022-08-21T13:02:54;6.53;;;4.03;;
55362;SDS011;41244;49.242;9.060;2022-08-21T13:05:28;6.22;;;4.60;;
55362;SDS011;41244;49.242;9.060;2022-08-21T13:08:04;4.95;;;3.92;;
55362;SDS011;41244;49.242;9.060;2022-08-21T13:10:33;4.47;;;3.60;;
55362;SDS011;41244;49.242;9.060;2022-08-21T13:13:03;4.97;;;3.53;;
55362;SDS011;41244;49.242;9.060;2022-08-21T13:15:38;6.93;;;3.78;;
55362;SDS011;41244;49.242;9.060;2022-08-21T13:18:06;4.38;;;3.50;;
55362;SDS011;41244;49.242;9.060;2022-08-21T13:20:37;7.18;;;3.40;;
55362;SDS011;41244;49.242;9.060;2022-08-21T13:23:07;6.65;;;3.80;;
55362;SDS011;41244;49.242;9.060;2022-08-21T13:25:53;6.68;;;3.97;;
55362;SDS011;41244;49.242;9.060;2022-08-21T13:28:20;5.07;;;3.80;;
55362;SDS011;41244;49.242;9.060;2022-08-21T13:30:47;5.38;;;3.80;;
55362;SDS011;41244;49.242;9.060;2022-08-21T13:33:21;6.18;;;3.60;;
55362;SDS011;41244;49.242;9.060;2022-08-21T13:35:51;5.07;;;3.60;;
55362;SDS011;41244;49.242;9.060;2022-08-21T13:38:41;5.43;;;3.70;;
55362;SDS011;41244;49.242;9.060;2022-08-21T13:41:21;6.88;;;3.80;;
55362;SDS011;41244;49.242;9.060;2022-08-21T13:43:50;6.20;;;4.18;;
55362;SDS011;41244;49.242;9.060;2022-08-21T13:46:34;6.45;;;4.90;;
55362;SDS011;41244;49.242;9.060;2022-08-21T13:49:01;6.43;;;4.00;;
55362;SDS011;41244;49.242;9.060;2022-08-21T13:51:30;5.97;;;3.70;;
55362;SDS011;41244;49.242;9.060;2022-08-21T13:53:56;8.23;;;4.47;;
55362;SDS011;41244;49.242;9.060;2022-08-21T13:56:27;6.88;;;4.32;;
55362;SDS011;41244;49.242;9.060;2022-08-21T13:58:59;5.53;;;4.40;;
55362;SDS011;41244;49.242;9.060;2022-08-21T14:01:30;7.25;;;4.20;;
55362;SDS011;41244;49.242;9.060;2022-08-21T14:04:14;6.25;;;3.70;;
55362;SDS011;41244;49.242;9.060;2022-08-21T14:06:49;7.05;;;3.97;;
55362;SDS011;41244;49.242;9.060;2022-08-21T14:09:23;8.13;;;4.28;;
55362;SDS011;41244;49.242;9.060;2022-08-21T14:11:55;6.30;;;3.72;;
55362;SDS011;41244;49.242;9.060;2022-08-21T14:14:23;5.65;;;3.90;;
55362;SDS011;41244;49.242;9.060;2022-08-21T14:17:01;5.57;;;3.65;;
55362;SDS011;41244;49.242;9.060;2022-08-21T14:25:14;5.75;;;4.00;;
55362;SDS011;41244;49.242;9.060;2022-08-21T14:30:39;7.30;;;4.07;;
55362;SDS011;41244;49.242;9.060;2022-08-21T14:33:10;5.68;;;3.88;;
55362;SDS011;41244;49.242;9.060;2022-08-21T14:35:39;5.72;;;3.75;;
55362;SDS011;41244;49.242;9.060;2022-08-21T14:38:19;6.22;;;4.00;;
55362;SDS011;41244;49.242;9.060;2022-08-21T14:40:48;7.10;;;4.83;;
55362;SDS011;41244;49.242;9.060;2022-08-21T14:43:17;8.00;;;3.70;;
55362;SDS011;41244;49.242;9.060;2022-08-21T14:45:44;5.60;;;3.75;;
55362;SDS011;41244;49.242;9.060;2022-08-21T14:48:10;6.85;;;3.85;;
55362;SDS011;41244;49.242;9.060;2022-08-21T14:50:36;4.20;;;3.55;;
55362;SDS011;41244;49.242;9.060;2022-08-21T14:53:02;7.05;;;3.60;;
55362;SDS011;41244;49.242;9.060;2022-08-21T14:55:29;5.15;;;3.83;;
55362;SDS011;41244;49.242;9.060;2022-08-21T14:58:16;5.13;;;3.90;;
55362;SDS011;41244;49.242;9.060;2022-08-21T15:00:42;5.53;;;3.78;;
55362;SDS011;41244;49.242;9.060;2022-08-21T15:03:08;6.30;;;4.03;;
55362;SDS011;41244;49.242;9.060;2022-08-21T15:05:36;6.40;;;3.78;;
55362;SDS011;41244;49.242;9.060;2022-08-21T15:08:02;5.13;;;3.63;;
55362;SDS011;41244;49.242;9.060;2022-08-21T15:10:31;4.00;;;3.60;;
55362;SDS011;41244;49.242;9.060;2022-08-21T15:13:01;4.88;;;4.10;;
55362;SDS011;41244;49.242;9.060;2022-08-21T15:15:28;7.60;;;4.10;;
55362;SDS011;41244;49.242;9.060;2022-08-21T15:17:58;6.10;;;4.03;;
55362;SDS011;41244;49.242;9.060;2022-08-21T15:20:23;7.65;;;3.78;;
55362;SDS011;41244;49.242;9.060;2022-08-21T15:22:49;4.57;;;3.65;;
55362;SDS011;41244;49.242;9.060;2022-08-21T15:25:15;5.15;;;3.70;;
55362;SDS011;41244;49.242;9.060;2022-08-21T15:27:41;4.55;;;3.53;;
55362;SDS011;41244;49.242;9.060;2022-08-21T15:30:06;6.38;;;3.80;;
55362;SDS011;41244;49.242;9.060;2022-08-21T15:32:33;6.40;;;3.85;;
55362;SDS011;41244;49.242;9.060;2022-08-21T15:34:59;8.02;;;3.88;;
55362;SDS011;41244;49.242;9.060;2022-08-21T15:37:25;5.93;;;4.10;;
55362;SDS011;41244;49.242;9.060;2022-08-21T15:39:51;6.18;;;4.70;;
55362;SDS011;41244;49.242;9.060;2022-08-21T15:42:17;6.65;;;3.92;;
55362;SDS011;41244;49.242;9.060;2022-08-21T15:44:44;7.13;;;4.10;;
55362;SDS011;41244;49.242;9.060;2022-08-21T15:47:14;7.63;;;3.70;;
55362;SDS011;41244;49.242;9.060;2022-08-21T15:49:43;7.60;;;4.10;;
55362;SDS011;41244;49.242;9.060;2022-08-21T15:52:14;6.40;;;4.03;;
55362;SDS011;41244;49.242;9.060;2022-08-21T15:54:42;6.57;;;3.75;;
55362;SDS011;41244;49.242;9.060;2022-08-21T15:57:09;6.68;;;3.70;;
55362;SDS011;41244;49.242;9.060;2022-08-21T15:59:39;8.80;;;5.97;;
55362;SDS011;41244;49.242;9.060;2022-08-21T16:02:30;8.27;;;3.97;;
55362;SDS011;41244;49.242;9.060;2022-08-21T16:04:56;6.55;;;4.28;;
55362;SDS011;41244;49.242;9.060;2022-08-21T16:07:22;4.68;;;3.55;;
55362;SDS011;41244;49.242;9.060;2022-08-21T16:09:51;6.18;;;3.85;;
55362;SDS011;41244;49.242;9.060;2022-08-21T16:12:19;7.03;;;3.97;;
55362;SDS011;41244;49.242;9.060;2022-08-21T16:14:51;5.05;;;3.67;;
55362;SDS011;41244;49.242;9.060;2022-08-21T16:17:17;8.00;;;4.00;;
55362;SDS011;41244;49.242;9.060;2022-08-21T16:19:43;6.07;;;3.70;;
55362;SDS011;41244;49.242;9.060;2022-08-21T16:22:10;6.50;;;3.55;;
55362;SDS011;41244;49.242;9.060;2022-08-21T16:24:36;6.65;;;3.70;;
55362;SDS011;41244;49.242;9.060;2022-08-21T16:27:02;5.53;;;3.83;;
55362;SDS011;41244;49.242;9.060;2022-08-21T16:29:30;4.90;;;3.60;;
55362;SDS011;41244;49.242;9.060;2022-08-21T16:31:59;5.63;;;3.80;;
55362;SDS011;41244;49.242;9.060;2022-08-21T16:34:26;5.05;;;3.70;;
55362;SDS011;41244;49.242;9.060;2022-08-21T16:36:52;5.68;;;3.67;;
55362;SDS011;41244;49.242;9.060;2022-08-21T16:39:22;6.18;;;3.67;;
55362;SDS011;41244;49.242;9.060;2022-08-21T16:41:47;5.13;;;3.63;;
55362;SDS011;41244;49.242;9.060;2022-08-21T16:44:16;4.90;;;3.75;;